createdAt,value
2022-12-23T00:01:22.775Z,66.05
2022-12-23T00:03:49.746Z,66.42
2022-12-23T00:06:17.307Z,66.73
2022-12-23T00:08:44.749Z,67.29
2022-12-23T00:11:14.045Z,67.84
2022-12-23T00:14:00.172Z,68.17
2022-12-23T00:16:27.597Z,66.53
2022-12-23T00:18:54.598Z,65.44
2022-12-23T00:21:21.624Z,65.21
2022-12-23T00:23:50.039Z,65.76
2022-12-23T00:26:21.817Z,66.21
2022-12-23T00:28:49.103Z,66.85
2022-12-23T00:31:18.726Z,67.42
2022-12-23T00:33:47.687Z,66.28
2022-12-23T00:36:16.808Z,66.52
2022-12-23T00:39:02.550Z,66.45
2022-12-23T00:41:48.638Z,66.84
2022-12-23T00:44:15.601Z,67.17
2022-12-23T00:46:42.503Z,68.20
2022-12-23T00:49:30.722Z,68.35
2022-12-23T00:51:58.064Z,66.99
2022-12-23T00:54:25.005Z,66.93
2022-12-23T00:56:52.255Z,66.81
2022-12-23T00:59:19.341Z,67.19
2022-12-23T01:02:05.456Z,67.66
2022-12-23T01:04:52.543Z,68.43
2022-12-23T01:07:19.909Z,68.18
2022-12-23T01:09:46.889Z,67.22
2022-12-23T01:12:14.189Z,66.95
2022-12-23T01:14:41.309Z,66.76
2022-12-23T01:17:08.479Z,67.21
2022-12-23T01:19:35.740Z,67.96
2022-12-23T01:22:02.721Z,68.44
2022-12-23T01:24:30.622Z,68.84
2022-12-23T01:26:57.564Z,67.73
2022-12-23T01:29:24.373Z,67.03
2022-12-23T01:31:51.484Z,67.26
2022-12-23T01:34:18.932Z,67.29
2022-12-23T01:36:46.170Z,67.68
2022-12-23T01:39:14.152Z,68.60
2022-12-23T01:42:00.197Z,68.79
2022-12-23T01:44:48.985Z,67.45
2022-12-23T01:47:40.259Z,66.94
2022-12-23T01:50:26.283Z,67.38
2022-12-23T01:53:02.978Z,67.80
2022-12-23T01:55:36.811Z,68.59
2022-12-23T01:58:13.257Z,69.11
2022-12-23T02:00:59.642Z,68.96
2022-12-23T02:03:45.410Z,67.99
2022-12-23T02:07:00.805Z,67.25
2022-12-23T02:09:32.821Z,67.57
2022-12-23T02:12:36.046Z,68.24
2022-12-23T02:15:33.362Z,68.71
2022-12-23T02:18:28.519Z,69.54
2022-12-23T02:21:04.105Z,68.82
2022-12-23T02:24:02.526Z,67.56
2022-12-23T02:27:06.703Z,66.74
2022-12-23T02:29:56.581Z,67.25
2022-12-23T02:32:30.557Z,67.78
2022-12-23T02:35:28.936Z,68.47
2022-12-23T02:38:16.544Z,69.59
2022-12-23T02:40:52.799Z,69.07
2022-12-23T02:43:41.728Z,68.01
2022-12-23T02:46:13.756Z,67.45
2022-12-23T02:49:13.219Z,67.34
2022-12-23T02:51:45.958Z,67.99
2022-12-23T02:54:14.562Z,68.39
2022-12-23T02:56:43.412Z,69.10
2022-12-23T02:59:16.212Z,69.32
2022-12-23T03:01:43.353Z,68.09
2022-12-23T03:04:10.480Z,67.71
2022-12-23T03:06:40.052Z,67.45
2022-12-23T03:09:07.308Z,67.69
2022-12-23T03:11:47.847Z,68.11
2022-12-23T03:14:36.297Z,68.67
2022-12-23T03:17:54.090Z,69.04
2022-12-23T03:20:25.711Z,67.44
2022-12-23T03:23:26.043Z,67.23
2022-12-23T03:26:07.758Z,67.06
2022-12-23T03:28:49.496Z,67.87
2022-12-23T03:31:26.564Z,68.54
2022-12-23T03:33:56.383Z,69.46
2022-12-23T03:36:29.878Z,69.46
2022-12-23T03:38:57.463Z,68.42
2022-12-23T03:41:31.919Z,67.92
2022-12-23T03:44:02.312Z,67.60
2022-12-23T03:46:58.466Z,67.71
2022-12-23T03:49:31.707Z,68.42
2022-12-23T03:52:04.381Z,69.37
2022-12-23T03:54:36.524Z,69.25
2022-12-23T03:57:05.168Z,68.24
2022-12-23T03:59:34.724Z,67.70
2022-12-23T04:02:09.397Z,67.77
2022-12-23T04:05:14.302Z,68.09
2022-12-23T04:07:43.608Z,68.87
2022-12-23T04:10:10.809Z,69.49
2022-12-23T04:12:38.503Z,69.56
2022-12-23T04:15:12.293Z,68.42
2022-12-23T04:17:39.996Z,67.70
2022-12-23T04:20:08.190Z,67.66
2022-12-23T04:22:35.637Z,67.95
2022-12-23T04:25:02.726Z,68.47
2022-12-23T04:27:30.055Z,69.04
2022-12-23T04:29:57.295Z,69.26
2022-12-23T04:32:24.196Z,68.14
2022-12-23T04:34:51.071Z,67.50
2022-12-23T04:37:17.925Z,67.20
2022-12-23T04:39:44.888Z,67.67
2022-12-23T04:42:11.785Z,67.97
2022-12-23T04:44:38.723Z,68.34
2022-12-23T04:47:05.754Z,68.64
2022-12-23T04:49:33.254Z,67.61
2022-12-23T04:52:00.136Z,67.07
2022-12-23T04:54:27.124Z,66.99
2022-12-23T04:56:54.106Z,67.62
2022-12-23T04:59:21.231Z,67.96
2022-12-23T05:01:48.187Z,68.31
2022-12-23T05:04:15.118Z,68.14
2022-12-23T05:06:42.053Z,67.23
2022-12-23T05:09:09.064Z,66.37
2022-12-23T05:11:41.911Z,66.23
2022-12-23T05:14:10.569Z,66.84
2022-12-23T05:16:38.022Z,67.07
2022-12-23T05:19:06.851Z,67.43
2022-12-23T05:21:33.826Z,68.50
2022-12-23T05:24:00.772Z,69.04
2022-12-23T05:26:27.836Z,68.10
2022-12-23T05:28:55.139Z,67.23
2022-12-23T05:31:22.065Z,67.89
2022-12-23T05:33:49.028Z,68.16
2022-12-23T05:36:16.056Z,68.40
2022-12-23T05:38:42.888Z,68.74
2022-12-23T05:41:10.078Z,69.13
2022-12-23T05:43:36.974Z,69.26
2022-12-23T05:46:04.091Z,67.80
2022-12-23T05:48:31.156Z,67.42
2022-12-23T05:50:58.179Z,67.59
2022-12-23T05:53:25.992Z,67.98
2022-12-23T05:55:52.852Z,68.38
2022-12-23T05:58:19.848Z,69.27
2022-12-23T06:00:46.756Z,69.40
2022-12-23T06:03:13.970Z,68.34
2022-12-23T06:05:43.595Z,67.10
2022-12-23T06:08:10.786Z,66.83
2022-12-23T06:10:38.644Z,67.31
2022-12-23T06:13:05.527Z,68.12
2022-12-23T06:15:33.308Z,68.03
2022-12-23T06:18:00.207Z,68.68
2022-12-23T06:20:27.367Z,68.99
2022-12-23T06:22:55.081Z,67.87
2022-12-23T06:25:21.938Z,67.47
2022-12-23T06:27:48.863Z,67.16
2022-12-23T06:30:18.122Z,67.35
2022-12-23T06:32:45.082Z,67.65
2022-12-23T06:35:11.987Z,68.23
2022-12-23T06:37:38.913Z,68.98
2022-12-23T06:40:06.461Z,69.05
2022-12-23T06:42:33.434Z,67.95
2022-12-23T06:45:00.515Z,67.17
2022-12-23T06:47:28.276Z,67.15
2022-12-23T06:49:55.344Z,66.85
2022-12-23T06:52:23.141Z,67.00
2022-12-23T06:54:50.109Z,67.25
2022-12-23T06:57:16.943Z,68.09
2022-12-23T11:13:33.741Z,64.78
2022-12-23T11:16:19.793Z,61.94
2022-12-23T11:18:57.925Z,58.86
2022-12-23T11:21:25.437Z,58.36
2022-12-23T11:24:16.576Z,58.46
2022-12-23T11:26:51.182Z,58.55
2022-12-23T11:29:22.956Z,59.00
2022-12-23T11:31:50.132Z,62.24
2022-12-23T11:34:21.499Z,59.80
2022-12-23T11:36:58.683Z,58.33
2022-12-23T11:39:34.019Z,55.62
2022-12-23T11:42:17.893Z,55.12
2022-12-23T11:44:46.493Z,55.87
2022-12-23T11:47:23.802Z,55.15
2022-12-23T11:49:52.978Z,54.24
2022-12-23T11:52:21.422Z,52.22
2022-12-23T11:54:54.940Z,53.26
2022-12-23T11:57:38.736Z,53.63
2022-12-23T12:00:07.807Z,52.33
2022-12-23T12:02:40.769Z,50.18
2022-12-23T12:05:16.642Z,49.84
2022-12-23T12:07:46.766Z,49.48
2022-12-23T12:10:18.288Z,50.25
2022-12-23T12:12:49.956Z,51.63
2022-12-23T12:15:44.203Z,51.62
2022-12-23T12:18:13.607Z,52.35
2022-12-23T12:21:07.358Z,52.68
2022-12-23T12:23:45.607Z,52.62
2022-12-23T12:26:28.664Z,52.99
2022-12-23T12:29:13.999Z,53.56
2022-12-23T12:31:46.160Z,54.05
2022-12-23T12:34:44.486Z,54.20
2022-12-23T12:37:38.261Z,54.69
2022-12-23T12:40:20.512Z,55.54
2022-12-23T12:42:59.967Z,55.30
2022-12-23T12:45:48.803Z,55.36
2022-12-23T12:48:25.283Z,55.40
2022-12-23T12:50:59.933Z,55.96
2022-12-23T12:53:27.084Z,56.55
2022-12-23T12:56:00.145Z,56.75
2022-12-23T12:58:27.063Z,57.32
2022-12-23T13:01:12.856Z,57.45
2022-12-23T13:04:07.803Z,58.03
2022-12-23T13:06:41.251Z,57.60
2022-12-23T13:09:38.860Z,56.43
2022-12-23T13:12:12.386Z,55.32
2022-12-23T13:15:00.695Z,55.95
2022-12-23T13:17:38.324Z,56.13
2022-12-23T13:20:24.579Z,56.47
2022-12-23T13:22:54.356Z,57.21
2022-12-23T13:25:24.240Z,57.53
2022-12-23T13:27:58.754Z,58.11
2022-12-23T13:30:32.250Z,58.76
2022-12-23T13:33:05.169Z,58.85
2022-12-23T13:35:50.552Z,59.22
2022-12-23T13:38:55.449Z,60.27
2022-12-23T13:41:36.208Z,59.60
2022-12-23T13:44:07.601Z,58.06
2022-12-23T13:46:41.225Z,57.80
2022-12-23T13:49:11.427Z,58.23
2022-12-23T13:52:03.762Z,58.36
2022-12-23T13:54:49.865Z,58.97
2022-12-23T13:57:42.192Z,59.36
2022-12-23T14:00:18.513Z,59.88
2022-12-23T14:02:55.125Z,60.41
2022-12-23T14:05:42.430Z,60.59
2022-12-23T14:08:18.312Z,61.60
2022-12-23T14:11:02.295Z,61.20
2022-12-23T14:13:49.801Z,59.79
2022-12-23T14:16:22.871Z,59.43
2022-12-23T14:19:08.641Z,59.34
2022-12-23T14:21:47.826Z,59.85
2022-12-23T14:24:27.673Z,60.32
2022-12-23T14:27:16.688Z,60.87
2022-12-23T14:30:01.519Z,61.61
2022-12-23T14:32:39.616Z,62.23
2022-12-23T14:35:22.648Z,61.97
2022-12-23T14:38:14.496Z,60.62
2022-12-23T14:40:55.072Z,60.35
2022-12-23T14:43:21.985Z,60.36
2022-12-23T14:45:50.408Z,60.59
2022-12-23T14:48:35.679Z,60.90
2022-12-23T14:51:04.088Z,61.49
2022-12-23T14:53:31.952Z,61.84
2022-12-23T14:56:26.852Z,62.32
2022-12-23T14:59:18.861Z,62.28
2022-12-23T15:01:54.114Z,61.23
2022-12-23T15:04:23.843Z,60.76
2022-12-23T15:06:53.573Z,60.69
2022-12-23T15:09:31.380Z,60.96
2022-12-23T15:11:59.956Z,61.38
2022-12-23T15:14:35.676Z,61.66
2022-12-23T15:17:21.600Z,62.80
2022-12-23T15:19:48.699Z,63.29
2022-12-23T15:22:25.220Z,63.48
2022-12-23T15:24:57.143Z,61.63
2022-12-23T15:27:28.911Z,60.99
2022-12-23T15:29:57.061Z,60.89
2022-12-23T15:32:24.687Z,61.59
2022-12-23T15:34:52.022Z,62.47
2022-12-23T15:37:24.816Z,62.99
2022-12-23T15:40:00.294Z,63.65
2022-12-23T15:42:31.837Z,64.60
2022-12-23T15:44:58.765Z,64.22
2022-12-23T15:47:29.013Z,62.94
2022-12-23T15:50:01.475Z,62.53
2022-12-23T15:52:29.358Z,62.61
2022-12-23T15:55:01.761Z,62.98
2022-12-23T15:57:28.872Z,63.21
2022-12-23T15:59:57.421Z,63.64
2022-12-23T16:02:59.705Z,64.42
2022-12-23T16:05:30.063Z,65.24
2022-12-23T16:08:24.538Z,65.23
2022-12-23T16:11:14.015Z,63.98
2022-12-23T16:13:47.374Z,63.51
2022-12-23T16:16:29.820Z,63.65
2022-12-23T16:18:56.719Z,64.00
2022-12-23T16:21:24.956Z,64.75
2022-12-23T16:23:52.120Z,65.14
2022-12-23T16:26:19.573Z,65.76
2022-12-23T16:28:49.137Z,65.83
2022-12-23T16:31:19.009Z,64.88
2022-12-23T16:33:49.056Z,64.23
2022-12-23T16:36:20.909Z,64.12
2022-12-23T16:38:48.687Z,64.25
2022-12-23T16:41:15.533Z,64.60
2022-12-23T16:43:49.569Z,65.06
2022-12-23T16:46:20.952Z,65.37
2022-12-23T16:48:52.682Z,64.76
2022-12-23T16:51:20.269Z,64.60
2022-12-23T16:53:48.342Z,64.71
2022-12-23T16:56:18.369Z,64.68
2022-12-23T16:58:45.348Z,64.95
2022-12-23T17:01:22.638Z,66.11
2022-12-23T17:03:50.739Z,66.25
2022-12-23T17:06:17.657Z,65.46
2022-12-23T17:08:44.600Z,64.78
2022-12-23T17:11:18.430Z,64.65
2022-12-23T17:13:45.624Z,64.84
2022-12-23T17:16:15.346Z,65.28
2022-12-23T17:18:42.272Z,66.02
2022-12-23T17:21:31.351Z,66.27
2022-12-23T17:24:03.426Z,64.88
2022-12-23T17:26:30.497Z,64.63
2022-12-23T17:28:57.329Z,64.86
2022-12-23T17:31:27.232Z,65.37
2022-12-23T17:33:54.568Z,65.89
2022-12-23T17:36:24.241Z,66.71
2022-12-23T17:38:51.138Z,66.64
2022-12-23T17:41:23.578Z,65.55
2022-12-23T17:43:50.462Z,65.01
2022-12-23T17:46:17.744Z,64.72
2022-12-23T17:48:47.053Z,64.80
2022-12-23T17:51:17.642Z,65.64
2022-12-23T17:53:45.090Z,66.25
2022-12-23T17:56:13.177Z,66.49
2022-12-23T17:58:40.582Z,67.24
2022-12-23T18:01:10.490Z,67.28
2022-12-23T18:03:37.306Z,65.77
2022-12-23T18:06:05.643Z,65.54
2022-12-23T18:08:32.716Z,65.92
2022-12-23T18:10:59.634Z,65.81
2022-12-23T18:13:26.664Z,66.17
2022-12-23T18:15:54.426Z,66.58
2022-12-23T18:18:30.175Z,67.20
2022-12-23T18:21:02.464Z,66.02
2022-12-23T18:23:30.921Z,65.81
2022-12-23T18:25:58.018Z,65.61
2022-12-23T18:28:24.953Z,66.12
2022-12-23T18:30:52.656Z,66.38
2022-12-23T18:33:19.932Z,67.32
2022-12-23T18:35:48.419Z,67.37
2022-12-23T18:38:16.007Z,66.13
2022-12-23T18:40:43.332Z,65.45
2022-12-23T18:43:20.137Z,65.51
2022-12-23T18:45:52.435Z,65.36
2022-12-23T18:48:21.523Z,65.74
2022-12-23T18:50:48.557Z,66.54
2022-12-23T18:53:23.401Z,66.78
2022-12-23T18:55:51.379Z,65.24
2022-12-23T18:58:18.855Z,64.81
2022-12-23T19:00:46.319Z,64.78
2022-12-23T19:03:27.596Z,65.58
2022-12-23T21:52:35.241Z,85.20
2022-12-23T21:55:02.193Z,81.34
2022-12-23T21:57:29.350Z,77.91
2022-12-23T21:59:56.249Z,75.68
2022-12-23T22:02:23.178Z,74.61
2022-12-23T22:04:50.235Z,74.11
2022-12-23T22:07:17.045Z,73.71
2022-12-23T22:09:44.017Z,73.75
2022-12-23T22:12:10.887Z,73.29
2022-12-23T22:14:37.922Z,71.32
2022-12-23T22:17:04.760Z,71.02
2022-12-23T22:19:31.670Z,70.85
2022-12-23T22:21:58.503Z,70.91
2022-12-23T22:24:25.597Z,71.39
2022-12-23T22:26:52.495Z,71.26
2022-12-23T22:29:19.380Z,69.95
2022-12-23T22:31:49.957Z,69.34
2022-12-23T22:34:19.112Z,68.93
2022-12-23T22:36:46.089Z,69.42
2022-12-23T22:39:17.727Z,69.73
2022-12-23T22:41:47.501Z,70.16
2022-12-23T22:44:15.066Z,70.23
2022-12-23T22:46:42.064Z,69.32
2022-12-23T22:49:12.687Z,68.86
2022-12-23T22:51:39.890Z,68.62
2022-12-23T22:54:06.789Z,69.14
2022-12-23T22:56:33.739Z,69.08
2022-12-23T22:59:01.014Z,69.48
2022-12-23T23:01:32.562Z,69.46
2022-12-23T23:04:00.396Z,68.03
2022-12-23T23:06:28.351Z,67.30
2022-12-23T23:08:55.552Z,67.19
2022-12-23T23:11:22.985Z,67.25
2022-12-23T23:13:50.802Z,67.84
2022-12-23T23:16:17.851Z,68.48
2022-12-23T23:18:44.970Z,68.55
2022-12-23T23:21:12.663Z,67.37
2022-12-23T23:23:39.616Z,66.81
2022-12-23T23:26:08.706Z,66.67
2022-12-23T23:28:35.971Z,67.22
2022-12-23T23:31:31.916Z,67.50
2022-12-23T23:33:49.672Z,68.43
2022-12-23T23:36:16.544Z,68.24
2022-12-23T23:38:43.614Z,67.04
2022-12-23T23:41:10.482Z,66.46
2022-12-23T23:43:37.283Z,66.63
2022-12-23T23:46:04.684Z,67.20
2022-12-23T23:48:31.948Z,67.93
2022-12-23T23:51:06.103Z,68.64
2022-12-23T23:53:33.202Z,68.46
2022-12-23T23:56:05.132Z,67.48
2022-12-23T23:58:33.747Z,66.94
